Etusivu
METAR-TAF:

METAR-TAF

Lentoasemat :

Kunming Changshuin kansainvälinen lentoasema

Kunming, Kiina

Leveyspiiri: 25-01N, Pituuspiiri: 102-41E, korkeus merenpinnasta: 1892 m

Tämänhetkinen sää

Tämä raportti tehtiin 1 tunti ja 1 minuuttia sitten, kello 20.00 UTC
Tuuli 4 kn etelästä, vaihdellen etelän/kaakon ja lännen/lounaan välillä
Lämpötila 16°C
Kosteus 88%
Ilmanpaine 1024 hPa
Näkyvyys 10 km tai enemmän
Hajanaisia pilviä 2000 ft:n korkeudessa
Pilvistä 3300 ft:n korkeudessa

METAR: ZPPP 182000Z 18002MPS 160V240 9999 SCT020 OVC033 16/14 Q1024 NOSIG

Aika: 05:01 (21:01 UTC)

Sääennuste

Tämä raportti tehtiin 7 tuntia ja 50 minuuttia sitten, kello 13.11 UTC
Ennuste voimassa 18. päivästä klo 18 UTC - 19. päivään klo 18 UTC
Tuuli 8 kn koillisesta
Näkyvyys: 4000 m
Hajanaisia pilviä 400 ft:n korkeudessa
Hajanaisia pilviä 2000 ft:n korkeudessa
Hajonneita pilviä 3300 ft:n korkeudessa
utua

TAF: ZPPP 181311Z 1818/1918 04004MPS 4000 BR SCT004 SCT020 BKN033 TX21/1908Z TN13/1823Z

Säähavainnot ja -ennusteet yli 4000 lentoasemalta (METAR- ja TAF-raportit).

Käytössä olevat sääasemat on merkitty karttaan keltaisilla ja punaisilla pisteillä.

Aseta hiiri pisteen päälle nähdäksesi sääaseman nimen.

Klikkaa sitten nähdäksesi säähavainnot ja -ennusteet.

Kartan vaihtaminen: klikkaa mustalla rastilla varustettuja vihreitä pisteitä, niin voit zoomata sisään; viivalla varustettua vihreää pistettä, niin voit zoomata ulos tai vihreitä nuolia, niin pääset viereisille kartoille.


METAR-TAF: